sensor_id;sensor_type;location;lat;lon;timestamp;temperature;humidity
56771;DHT22;42641;59.794;17.616;2023-09-18T00:01:26;6.40;99.90
56771;DHT22;42641;59.794;17.616;2023-09-18T00:03:52;6.40;99.90
56771;DHT22;42641;59.794;17.616;2023-09-18T00:06:18;6.40;99.90
56771;DHT22;42641;59.794;17.616;2023-09-18T00:08:45;6.40;99.90
56771;DHT22;42641;59.794;17.616;2023-09-18T00:11:11;6.30;99.90
56771;DHT22;42641;59.794;17.616;2023-09-18T00:13:38;6.30;99.90
56771;DHT22;42641;59.794;17.616;2023-09-18T00:16:04;6.30;99.90
56771;DHT22;42641;59.794;17.616;2023-09-18T00:18:31;6.30;99.90
56771;DHT22;42641;59.794;17.616;2023-09-18T00:20:57;6.30;99.90
56771;DHT22;42641;59.794;17.616;2023-09-18T00:23:23;6.20;99.90
56771;DHT22;42641;59.794;17.616;2023-09-18T00:25:50;6.20;99.90
56771;DHT22;42641;59.794;17.616;2023-09-18T00:28:16;6.20;99.90
56771;DHT22;42641;59.794;17.616;2023-09-18T00:30:47;6.20;99.90
56771;DHT22;42641;59.794;17.616;2023-09-18T00:33:16;6.20;99.90
56771;DHT22;42641;59.794;17.616;2023-09-18T00:35:49;6.10;99.90
56771;DHT22;42641;59.794;17.616;2023-09-18T00:38:16;6.10;99.90
56771;DHT22;42641;59.794;17.616;2023-09-18T00:40:43;6.10;99.90
56771;DHT22;42641;59.794;17.616;2023-09-18T00:43:10;6.10;99.90
56771;DHT22;42641;59.794;17.616;2023-09-18T00:45:42;6.00;99.90
56771;DHT22;42641;59.794;17.616;2023-09-18T00:48:10;6.00;99.90
56771;DHT22;42641;59.794;17.616;2023-09-18T00:50:37;5.90;99.90
56771;DHT22;42641;59.794;17.616;2023-09-18T00:53:04;5.90;99.90
56771;DHT22;42641;59.794;17.616;2023-09-18T00:55:33;5.90;99.90
56771;DHT22;42641;59.794;17.616;2023-09-18T00:58:00;5.90;99.90
56771;DHT22;42641;59.794;17.616;2023-09-18T01:00:26;5.90;99.90
56771;DHT22;42641;59.794;17.616;2023-09-18T01:02:53;5.80;99.90
56771;DHT22;42641;59.794;17.616;2023-09-18T01:05:19;5.80;99.90
56771;DHT22;42641;59.794;17.616;2023-09-18T01:07:46;5.80;99.90
56771;DHT22;42641;59.794;17.616;2023-09-18T01:10:13;5.70;99.90
56771;DHT22;42641;59.794;17.616;2023-09-18T01:12:47;5.80;99.90
56771;DHT22;42641;59.794;17.616;2023-09-18T01:15:22;5.80;99.90
56771;DHT22;42641;59.794;17.616;2023-09-18T01:17:50;5.80;99.90
56771;DHT22;42641;59.794;17.616;2023-09-18T01:20:17;5.70;99.90
56771;DHT22;42641;59.794;17.616;2023-09-18T01:22:44;5.60;99.90
56771;DHT22;42641;59.794;17.616;2023-09-18T01:25:10;5.60;99.90
56771;DHT22;42641;59.794;17.616;2023-09-18T01:27:36;5.60;99.90
56771;DHT22;42641;59.794;17.616;2023-09-18T01:30:03;5.60;99.90
56771;DHT22;42641;59.794;17.616;2023-09-18T01:32:32;5.60;99.90
56771;DHT22;42641;59.794;17.616;2023-09-18T01:35:02;5.60;99.90
56771;DHT22;42641;59.794;17.616;2023-09-18T01:37:32;5.60;99.90
56771;DHT22;42641;59.794;17.616;2023-09-18T01:40:00;5.50;99.90
56771;DHT22;42641;59.794;17.616;2023-09-18T01:42:28;5.50;99.90
56771;DHT22;42641;59.794;17.616;2023-09-18T01:44:55;5.50;99.90
56771;DHT22;42641;59.794;17.616;2023-09-18T01:47:22;5.40;99.90
56771;DHT22;42641;59.794;17.616;2023-09-18T01:49:55;5.40;99.90
56771;DHT22;42641;59.794;17.616;2023-09-18T01:52:22;5.40;99.90
56771;DHT22;42641;59.794;17.616;2023-09-18T01:54:48;5.30;99.90
56771;DHT22;42641;59.794;17.616;2023-09-18T01:57:15;5.20;99.90
56771;DHT22;42641;59.794;17.616;2023-09-18T01:59:41;5.20;99.90
56771;DHT22;42641;59.794;17.616;2023-09-18T02:02:07;5.20;99.90
56771;DHT22;42641;59.794;17.616;2023-09-18T02:04:36;5.30;99.90
56771;DHT22;42641;59.794;17.616;2023-09-18T02:07:03;5.30;99.90
56771;DHT22;42641;59.794;17.616;2023-09-18T02:09:29;5.30;99.90
56771;DHT22;42641;59.794;17.616;2023-09-18T02:11:55;5.20;99.90
56771;DHT22;42641;59.794;17.616;2023-09-18T02:14:22;5.30;99.90
56771;DHT22;42641;59.794;17.616;2023-09-18T02:16:48;5.30;99.90
56771;DHT22;42641;59.794;17.616;2023-09-18T02:19:16;5.30;99.90
56771;DHT22;42641;59.794;17.616;2023-09-18T02:21:46;5.30;99.90
56771;DHT22;42641;59.794;17.616;2023-09-18T02:24:12;5.30;99.90
56771;DHT22;42641;59.794;17.616;2023-09-18T02:26:39;5.30;99.90
56771;DHT22;42641;59.794;17.616;2023-09-18T02:29:07;5.30;99.90
56771;DHT22;42641;59.794;17.616;2023-09-18T02:31:34;5.20;99.90
56771;DHT22;42641;59.794;17.616;2023-09-18T02:34:00;5.20;99.90
56771;DHT22;42641;59.794;17.616;2023-09-18T02:36:26;5.20;99.90
56771;DHT22;42641;59.794;17.616;2023-09-18T02:38:53;5.20;99.90
56771;DHT22;42641;59.794;17.616;2023-09-18T02:41:19;5.10;99.90
56771;DHT22;42641;59.794;17.616;2023-09-18T02:43:46;5.10;99.90
56771;DHT22;42641;59.794;17.616;2023-09-18T02:46:13;5.20;99.90
56771;DHT22;42641;59.794;17.616;2023-09-18T02:48:39;5.20;99.90
56771;DHT22;42641;59.794;17.616;2023-09-18T02:51:06;5.20;99.90
56771;DHT22;42641;59.794;17.616;2023-09-18T02:53:32;5.20;99.90
56771;DHT22;42641;59.794;17.616;2023-09-18T02:55:59;5.20;99.90
56771;DHT22;42641;59.794;17.616;2023-09-18T02:58:27;5.10;99.90
56771;DHT22;42641;59.794;17.616;2023-09-18T03:00:56;5.10;99.90
56771;DHT22;42641;59.794;17.616;2023-09-18T03:03:24;5.10;99.90
56771;DHT22;42641;59.794;17.616;2023-09-18T03:05:51;5.10;99.90
56771;DHT22;42641;59.794;17.616;2023-09-18T03:08:18;5.00;99.90
56771;DHT22;42641;59.794;17.616;2023-09-18T03:10:44;4.90;99.90
56771;DHT22;42641;59.794;17.616;2023-09-18T03:13:13;4.90;99.90
56771;DHT22;42641;59.794;17.616;2023-09-18T03:15:40;4.90;99.90
56771;DHT22;42641;59.794;17.616;2023-09-18T03:18:06;4.90;99.90
56771;DHT22;42641;59.794;17.616;2023-09-18T03:20:35;4.90;99.90
56771;DHT22;42641;59.794;17.616;2023-09-18T03:23:02;4.80;99.90
56771;DHT22;42641;59.794;17.616;2023-09-18T03:25:29;4.80;99.90
56771;DHT22;42641;59.794;17.616;2023-09-18T03:27:57;4.80;99.90
56771;DHT22;42641;59.794;17.616;2023-09-18T03:30:30;4.80;99.90
56771;DHT22;42641;59.794;17.616;2023-09-18T03:32:57;4.70;99.90
56771;DHT22;42641;59.794;17.616;2023-09-18T03:35:28;4.80;99.90
56771;DHT22;42641;59.794;17.616;2023-09-18T03:37:55;4.80;99.90
56771;DHT22;42641;59.794;17.616;2023-09-18T03:40:22;4.80;99.90
56771;DHT22;42641;59.794;17.616;2023-09-18T03:42:49;4.80;99.90
56771;DHT22;42641;59.794;17.616;2023-09-18T03:45:16;4.90;99.90
56771;DHT22;42641;59.794;17.616;2023-09-18T03:47:45;4.90;99.90
56771;DHT22;42641;59.794;17.616;2023-09-18T03:50:12;4.90;99.90
56771;DHT22;42641;59.794;17.616;2023-09-18T03:52:39;4.80;99.90
56771;DHT22;42641;59.794;17.616;2023-09-18T03:55:07;4.90;99.90
56771;DHT22;42641;59.794;17.616;2023-09-18T03:57:34;4.90;99.90
56771;DHT22;42641;59.794;17.616;2023-09-18T04:00:01;4.90;99.90
56771;DHT22;42641;59.794;17.616;2023-09-18T04:02:38;4.90;99.90
56771;DHT22;42641;59.794;17.616;2023-09-18T04:05:05;4.80;99.90
56771;DHT22;42641;59.794;17.616;2023-09-18T04:07:31;4.80;99.90
56771;DHT22;42641;59.794;17.616;2023-09-18T04:10:00;4.80;99.90
56771;DHT22;42641;59.794;17.616;2023-09-18T04:12:26;4.90;99.90
56771;DHT22;42641;59.794;17.616;2023-09-18T04:14:53;4.80;99.90
56771;DHT22;42641;59.794;17.616;2023-09-18T04:17:19;4.70;99.90
56771;DHT22;42641;59.794;17.616;2023-09-18T04:19:47;4.80;99.90
56771;DHT22;42641;59.794;17.616;2023-09-18T04:22:14;4.70;99.90
56771;DHT22;42641;59.794;17.616;2023-09-18T04:24:41;4.70;99.90
56771;DHT22;42641;59.794;17.616;2023-09-18T04:27:08;4.70;99.90
56771;DHT22;42641;59.794;17.616;2023-09-18T04:29:34;4.70;99.90
56771;DHT22;42641;59.794;17.616;2023-09-18T04:32:03;4.70;99.90
56771;DHT22;42641;59.794;17.616;2023-09-18T04:34:30;4.70;99.90
56771;DHT22;42641;59.794;17.616;2023-09-18T04:36:57;4.70;99.90
56771;DHT22;42641;59.794;17.616;2023-09-18T04:39:24;4.70;99.90
56771;DHT22;42641;59.794;17.616;2023-09-18T04:41:50;4.80;99.90
56771;DHT22;42641;59.794;17.616;2023-09-18T04:44:17;4.80;99.90
56771;DHT22;42641;59.794;17.616;2023-09-18T04:46:44;4.80;99.90
56771;DHT22;42641;59.794;17.616;2023-09-18T04:49:12;4.80;99.90
56771;DHT22;42641;59.794;17.616;2023-09-18T04:51:38;4.80;99.90
56771;DHT22;42641;59.794;17.616;2023-09-18T04:54:08;4.80;99.90
56771;DHT22;42641;59.794;17.616;2023-09-18T04:56:35;4.80;99.90
56771;DHT22;42641;59.794;17.616;2023-09-18T04:59:01;4.80;99.90
56771;DHT22;42641;59.794;17.616;2023-09-18T05:01:28;4.80;99.90
56771;DHT22;42641;59.794;17.616;2023-09-18T05:03:56;4.90;99.90
56771;DHT22;42641;59.794;17.616;2023-09-18T05:06:22;5.00;99.90
56771;DHT22;42641;59.794;17.616;2023-09-18T05:08:49;5.00;99.90
56771;DHT22;42641;59.794;17.616;2023-09-18T05:11:15;5.00;99.90
56771;DHT22;42641;59.794;17.616;2023-09-18T05:13:42;5.00;99.90
56771;DHT22;42641;59.794;17.616;2023-09-18T05:16:09;5.00;99.90
56771;DHT22;42641;59.794;17.616;2023-09-18T05:18:35;5.10;99.90
56771;DHT22;42641;59.794;17.616;2023-09-18T05:21:04;5.10;99.90
56771;DHT22;42641;59.794;17.616;2023-09-18T05:23:31;5.20;99.90
56771;DHT22;42641;59.794;17.616;2023-09-18T05:25:58;5.30;99.90
56771;DHT22;42641;59.794;17.616;2023-09-18T05:28:25;5.30;99.90
56771;DHT22;42641;59.794;17.616;2023-09-18T05:30:52;5.40;99.90
56771;DHT22;42641;59.794;17.616;2023-09-18T05:33:19;5.40;99.90
56771;DHT22;42641;59.794;17.616;2023-09-18T05:35:46;5.40;99.90
56771;DHT22;42641;59.794;17.616;2023-09-18T05:38:13;5.50;99.90
56771;DHT22;42641;59.794;17.616;2023-09-18T05:40:41;5.60;99.90
56771;DHT22;42641;59.794;17.616;2023-09-18T05:43:07;5.70;99.90
56771;DHT22;42641;59.794;17.616;2023-09-18T05:45:34;5.80;99.90
56771;DHT22;42641;59.794;17.616;2023-09-18T05:48:01;5.90;99.90
56771;DHT22;42641;59.794;17.616;2023-09-18T05:50:31;5.90;99.90
56771;DHT22;42641;59.794;17.616;2023-09-18T05:52:59;6.00;99.90
56771;DHT22;42641;59.794;17.616;2023-09-18T05:55:27;6.10;99.90
56771;DHT22;42641;59.794;17.616;2023-09-18T05:57:54;6.10;99.90
56771;DHT22;42641;59.794;17.616;2023-09-18T06:00:21;6.20;99.90
56771;DHT22;42641;59.794;17.616;2023-09-18T06:02:48;6.30;99.90
56771;DHT22;42641;59.794;17.616;2023-09-18T06:05:14;6.30;99.90
56771;DHT22;42641;59.794;17.616;2023-09-18T06:07:42;6.40;99.90
56771;DHT22;42641;59.794;17.616;2023-09-18T06:10:08;6.60;99.90
56771;DHT22;42641;59.794;17.616;2023-09-18T06:12:38;6.80;99.90
56771;DHT22;42641;59.794;17.616;2023-09-18T06:15:08;7.00;99.90
56771;DHT22;42641;59.794;17.616;2023-09-18T06:17:39;7.10;99.90
56771;DHT22;42641;59.794;17.616;2023-09-18T06:20:07;7.20;99.90
56771;DHT22;42641;59.794;17.616;2023-09-18T06:22:36;7.40;99.90
56771;DHT22;42641;59.794;17.616;2023-09-18T06:25:05;7.70;99.90
56771;DHT22;42641;59.794;17.616;2023-09-18T06:27:36;7.90;99.90
56771;DHT22;42641;59.794;17.616;2023-09-18T06:30:06;8.20;99.90
56771;DHT22;42641;59.794;17.616;2023-09-18T06:32:33;8.40;99.90
56771;DHT22;42641;59.794;17.616;2023-09-18T06:35:00;8.60;99.90
56771;DHT22;42641;59.794;17.616;2023-09-18T06:37:27;8.90;99.90
56771;DHT22;42641;59.794;17.616;2023-09-18T06:39:53;9.10;99.90
56771;DHT22;42641;59.794;17.616;2023-09-18T06:42:20;9.30;99.90
56771;DHT22;42641;59.794;17.616;2023-09-18T06:44:53;9.40;99.90
56771;DHT22;42641;59.794;17.616;2023-09-18T06:47:19;9.60;99.90
56771;DHT22;42641;59.794;17.616;2023-09-18T06:49:46;9.70;99.90
56771;DHT22;42641;59.794;17.616;2023-09-18T06:52:13;9.80;99.90
56771;DHT22;42641;59.794;17.616;2023-09-18T06:54:39;10.00;99.90
56771;DHT22;42641;59.794;17.616;2023-09-18T06:57:07;10.20;99.90
56771;DHT22;42641;59.794;17.616;2023-09-18T06:59:33;10.40;99.90
56771;DHT22;42641;59.794;17.616;2023-09-18T07:02:00;10.60;99.90
56771;DHT22;42641;59.794;17.616;2023-09-18T07:04:27;10.70;99.90
56771;DHT22;42641;59.794;17.616;2023-09-18T07:06:54;10.90;99.90
56771;DHT22;42641;59.794;17.616;2023-09-18T07:09:20;11.00;99.90
56771;DHT22;42641;59.794;17.616;2023-09-18T07:11:49;11.20;99.90
56771;DHT22;42641;59.794;17.616;2023-09-18T07:14:15;11.30;99.90
56771;DHT22;42641;59.794;17.616;2023-09-18T07:16:42;11.40;99.90
56771;DHT22;42641;59.794;17.616;2023-09-18T07:19:08;11.50;99.90
56771;DHT22;42641;59.794;17.616;2023-09-18T07:21:38;11.70;99.90
56771;DHT22;42641;59.794;17.616;2023-09-18T07:24:06;11.90;99.90
56771;DHT22;42641;59.794;17.616;2023-09-18T07:26:33;12.10;99.90
56771;DHT22;42641;59.794;17.616;2023-09-18T07:29:00;12.40;99.90
56771;DHT22;42641;59.794;17.616;2023-09-18T07:31:27;12.60;99.90
56771;DHT22;42641;59.794;17.616;2023-09-18T07:33:53;12.90;99.90
56771;DHT22;42641;59.794;17.616;2023-09-18T07:36:19;13.10;99.90
56771;DHT22;42641;59.794;17.616;2023-09-18T07:38:46;13.30;99.90
56771;DHT22;42641;59.794;17.616;2023-09-18T07:41:13;13.60;99.90
56771;DHT22;42641;59.794;17.616;2023-09-18T07:43:41;13.60;99.90
56771;DHT22;42641;59.794;17.616;2023-09-18T07:46:07;13.70;99.90
56771;DHT22;42641;59.794;17.616;2023-09-18T07:48:34;13.80;99.90
56771;DHT22;42641;59.794;17.616;2023-09-18T07:51:01;13.90;99.90
56771;DHT22;42641;59.794;17.616;2023-09-18T07:53:27;14.10;99.90
56771;DHT22;42641;59.794;17.616;2023-09-18T07:55:57;14.20;99.90
56771;DHT22;42641;59.794;17.616;2023-09-18T07:58:25;14.40;99.90
56771;DHT22;42641;59.794;17.616;2023-09-18T08:00:57;14.50;99.90
56771;DHT22;42641;59.794;17.616;2023-09-18T08:03:24;14.70;99.90
56771;DHT22;42641;59.794;17.616;2023-09-18T08:05:52;14.70;99.90
56771;DHT22;42641;59.794;17.616;2023-09-18T08:08:20;14.80;99.90
56771;DHT22;42641;59.794;17.616;2023-09-18T08:10:46;14.90;99.90
56771;DHT22;42641;59.794;17.616;2023-09-18T08:13:13;15.00;99.90
56771;DHT22;42641;59.794;17.616;2023-09-18T08:15:39;15.00;99.90
56771;DHT22;42641;59.794;17.616;2023-09-18T08:18:06;15.10;99.90
56771;DHT22;42641;59.794;17.616;2023-09-18T08:20:32;15.20;99.90
56771;DHT22;42641;59.794;17.616;2023-09-18T08:22:59;15.30;99.90
56771;DHT22;42641;59.794;17.616;2023-09-18T08:25:29;15.40;99.90
56771;DHT22;42641;59.794;17.616;2023-09-18T08:27:56;15.60;99.90
56771;DHT22;42641;59.794;17.616;2023-09-18T08:30:22;15.70;99.90
56771;DHT22;42641;59.794;17.616;2023-09-18T08:32:48;15.80;99.90
56771;DHT22;42641;59.794;17.616;2023-09-18T08:35:15;15.90;99.90
56771;DHT22;42641;59.794;17.616;2023-09-18T08:37:42;15.90;99.90
56771;DHT22;42641;59.794;17.616;2023-09-18T08:40:12;16.00;99.90
56771;DHT22;42641;59.794;17.616;2023-09-18T08:42:46;16.00;99.90
56771;DHT22;42641;59.794;17.616;2023-09-18T08:45:22;16.00;99.90
56771;DHT22;42641;59.794;17.616;2023-09-18T08:47:50;16.00;99.90
56771;DHT22;42641;59.794;17.616;2023-09-18T08:50:17;16.00;99.90
56771;DHT22;42641;59.794;17.616;2023-09-18T08:52:45;16.00;99.90
56771;DHT22;42641;59.794;17.616;2023-09-18T08:55:13;16.10;99.90
56771;DHT22;42641;59.794;17.616;2023-09-18T08:57:40;16.10;99.90
56771;DHT22;42641;59.794;17.616;2023-09-18T09:00:08;16.10;99.90
56771;DHT22;42641;59.794;17.616;2023-09-18T09:02:37;16.20;99.90
56771;DHT22;42641;59.794;17.616;2023-09-18T09:05:05;16.20;99.90
56771;DHT22;42641;59.794;17.616;2023-09-18T09:07:31;16.20;99.90
56771;DHT22;42641;59.794;17.616;2023-09-18T09:09:58;16.30;99.90
56771;DHT22;42641;59.794;17.616;2023-09-18T09:12:50;16.30;99.90
56771;DHT22;42641;59.794;17.616;2023-09-18T09:15:44;16.20;99.90
56771;DHT22;42641;59.794;17.616;2023-09-18T09:18:15;16.10;99.90
56771;DHT22;42641;59.794;17.616;2023-09-18T09:20:56;16.10;99.90
56771;DHT22;42641;59.794;17.616;2023-09-18T09:23:27;16.10;99.90
56771;DHT22;42641;59.794;17.616;2023-09-18T09:25:54;16.30;99.90
56771;DHT22;42641;59.794;17.616;2023-09-18T09:28:30;16.40;99.90
56771;DHT22;42641;59.794;17.616;2023-09-18T09:31:01;16.60;99.90
56771;DHT22;42641;59.794;17.616;2023-09-18T09:33:32;16.70;99.90
56771;DHT22;42641;59.794;17.616;2023-09-18T09:35:58;17.10;99.90
56771;DHT22;42641;59.794;17.616;2023-09-18T09:38:30;17.30;99.90
56771;DHT22;42641;59.794;17.616;2023-09-18T09:41:00;17.50;99.90
56771;DHT22;42641;59.794;17.616;2023-09-18T09:43:30;17.50;99.90
56771;DHT22;42641;59.794;17.616;2023-09-18T09:45:58;17.60;99.90
56771;DHT22;42641;59.794;17.616;2023-09-18T09:48:25;17.90;99.90
56771;DHT22;42641;59.794;17.616;2023-09-18T09:50:52;18.00;99.90
56771;DHT22;42641;59.794;17.616;2023-09-18T09:53:44;18.10;99.90
56771;DHT22;42641;59.794;17.616;2023-09-18T09:56:13;18.10;99.90
56771;DHT22;42641;59.794;17.616;2023-09-18T09:58:40;18.00;99.90
56771;DHT22;42641;59.794;17.616;2023-09-18T10:01:12;18.10;99.90
56771;DHT22;42641;59.794;17.616;2023-09-18T10:03:44;18.10;99.90
56771;DHT22;42641;59.794;17.616;2023-09-18T10:06:11;18.00;99.90
56771;DHT22;42641;59.794;17.616;2023-09-18T10:08:40;17.80;99.90
56771;DHT22;42641;59.794;17.616;2023-09-18T10:11:08;17.70;99.90
56771;DHT22;42641;59.794;17.616;2023-09-18T10:13:59;17.60;99.90
56771;DHT22;42641;59.794;17.616;2023-09-18T10:16:28;17.50;99.90
56771;DHT22;42641;59.794;17.616;2023-09-18T10:19:17;17.70;99.90
56771;DHT22;42641;59.794;17.616;2023-09-18T10:22:38;17.80;99.90
56771;DHT22;42641;59.794;17.616;2023-09-18T10:25:26;18.10;99.90
56771;DHT22;42641;59.794;17.616;2023-09-18T10:27:55;18.00;99.90
56771;DHT22;42641;59.794;17.616;2023-09-18T10:30:29;17.90;99.90
56771;DHT22;42641;59.794;17.616;2023-09-18T10:32:59;17.80;99.90
56771;DHT22;42641;59.794;17.616;2023-09-18T10:35:28;18.00;99.90
56771;DHT22;42641;59.794;17.616;2023-09-18T10:37:54;18.30;99.90
56771;DHT22;42641;59.794;17.616;2023-09-18T10:40:22;18.30;99.90
56771;DHT22;42641;59.794;17.616;2023-09-18T10:42:50;18.20;99.90
56771;DHT22;42641;59.794;17.616;2023-09-18T10:45:18;18.20;99.90
56771;DHT22;42641;59.794;17.616;2023-09-18T10:47:46;18.20;99.90
56771;DHT22;42641;59.794;17.616;2023-09-18T10:50:26;18.20;99.90
56771;DHT22;42641;59.794;17.616;2023-09-18T10:52:53;18.20;99.90
56771;DHT22;42641;59.794;17.616;2023-09-18T10:55:21;18.30;99.90
56771;DHT22;42641;59.794;17.616;2023-09-18T10:57:52;18.50;99.90
56771;DHT22;42641;59.794;17.616;2023-09-18T11:00:19;18.60;99.90
56771;DHT22;42641;59.794;17.616;2023-09-18T11:02:51;18.70;99.90
56771;DHT22;42641;59.794;17.616;2023-09-18T11:05:33;18.60;99.90
56771;DHT22;42641;59.794;17.616;2023-09-18T11:08:29;18.60;99.90
56771;DHT22;42641;59.794;17.616;2023-09-18T11:13:29;18.90;99.90
56771;DHT22;42641;59.794;17.616;2023-09-18T11:21:31;19.30;99.90
56771;DHT22;42641;59.794;17.616;2023-09-18T11:26:36;20.30;99.90
56771;DHT22;42641;59.794;17.616;2023-09-18T11:29:08;20.50;99.90
56771;DHT22;42641;59.794;17.616;2023-09-18T11:34:27;20.70;99.90
56771;DHT22;42641;59.794;17.616;2023-09-18T11:37:22;20.10;99.90
56771;DHT22;42641;59.794;17.616;2023-09-18T11:39:49;19.90;99.90
56771;DHT22;42641;59.794;17.616;2023-09-18T11:42:19;19.80;99.90
56771;DHT22;42641;59.794;17.616;2023-09-18T11:44:46;19.50;99.90
56771;DHT22;42641;59.794;17.616;2023-09-18T11:47:15;19.50;99.90
56771;DHT22;42641;59.794;17.616;2023-09-18T11:49:53;19.50;99.90
56771;DHT22;42641;59.794;17.616;2023-09-18T11:52:25;19.50;99.90
56771;DHT22;42641;59.794;17.616;2023-09-18T11:54:54;20.00;99.90
56771;DHT22;42641;59.794;17.616;2023-09-18T11:57:21;20.50;99.90
56771;DHT22;42641;59.794;17.616;2023-09-18T11:59:48;21.10;99.90
56771;DHT22;42641;59.794;17.616;2023-09-18T12:02:28;22.00;99.90
56771;DHT22;42641;59.794;17.616;2023-09-18T12:05:11;22.60;99.90
56771;DHT22;42641;59.794;17.616;2023-09-18T12:07:40;23.00;99.90
56771;DHT22;42641;59.794;17.616;2023-09-18T12:10:16;23.00;99.90
56771;DHT22;42641;59.794;17.616;2023-09-18T12:12:43;23.00;99.90
56771;DHT22;42641;59.794;17.616;2023-09-18T12:15:16;23.40;99.90
56771;DHT22;42641;59.794;17.616;2023-09-18T12:17:43;23.60;99.90
56771;DHT22;42641;59.794;17.616;2023-09-18T12:20:16;23.60;99.90
56771;DHT22;42641;59.794;17.616;2023-09-18T12:22:49;23.40;99.90
56771;DHT22;42641;59.794;17.616;2023-09-18T12:25:17;22.60;99.90
56771;DHT22;42641;59.794;17.616;2023-09-18T12:27:44;22.50;99.90
56771;DHT22;42641;59.794;17.616;2023-09-18T12:30:12;22.80;99.90
56771;DHT22;42641;59.794;17.616;2023-09-18T12:32:42;23.10;99.90
56771;DHT22;42641;59.794;17.616;2023-09-18T12:35:08;23.00;99.90
56771;DHT22;42641;59.794;17.616;2023-09-18T12:37:40;23.20;99.90
56771;DHT22;42641;59.794;17.616;2023-09-18T12:40:20;23.20;99.90
56771;DHT22;42641;59.794;17.616;2023-09-18T12:42:47;23.30;99.90
56771;DHT22;42641;59.794;17.616;2023-09-18T12:45:15;23.10;99.10
56771;DHT22;42641;59.794;17.616;2023-09-18T12:47:42;23.10;99.50
56771;DHT22;42641;59.794;17.616;2023-09-18T12:50:13;23.20;99.20
56771;DHT22;42641;59.794;17.616;2023-09-18T12:52:40;23.00;99.80
56771;DHT22;42641;59.794;17.616;2023-09-18T12:55:08;23.10;99.90
56771;DHT22;42641;59.794;17.616;2023-09-18T12:57:35;22.50;99.80
56771;DHT22;42641;59.794;17.616;2023-09-18T13:00:11;21.30;99.90
56771;DHT22;42641;59.794;17.616;2023-09-18T13:02:39;20.70;99.90
56771;DHT22;42641;59.794;17.616;2023-09-18T13:05:06;20.10;99.90
56771;DHT22;42641;59.794;17.616;2023-09-18T13:07:43;19.50;99.90
56771;DHT22;42641;59.794;17.616;2023-09-18T13:10:11;19.10;99.90
56771;DHT22;42641;59.794;17.616;2023-09-18T13:12:51;19.00;99.90
56771;DHT22;42641;59.794;17.616;2023-09-18T13:15:31;19.10;99.90
56771;DHT22;42641;59.794;17.616;2023-09-18T13:18:00;19.50;99.90
56771;DHT22;42641;59.794;17.616;2023-09-18T13:20:28;19.40;99.90
56771;DHT22;42641;59.794;17.616;2023-09-18T13:22:56;19.20;99.90
56771;DHT22;42641;59.794;17.616;2023-09-18T13:25:25;19.10;99.90
56771;DHT22;42641;59.794;17.616;2023-09-18T13:27:53;19.00;99.90
56771;DHT22;42641;59.794;17.616;2023-09-18T13:30:20;19.00;99.90
56771;DHT22;42641;59.794;17.616;2023-09-18T13:32:49;19.00;99.90
56771;DHT22;42641;59.794;17.616;2023-09-18T13:35:19;19.00;99.90
56771;DHT22;42641;59.794;17.616;2023-09-18T13:37:46;19.00;99.90
56771;DHT22;42641;59.794;17.616;2023-09-18T13:40:12;19.00;99.90
56771;DHT22;42641;59.794;17.616;2023-09-18T13:42:39;19.10;99.90
56771;DHT22;42641;59.794;17.616;2023-09-18T13:45:05;19.10;99.90
56771;DHT22;42641;59.794;17.616;2023-09-18T13:47:33;18.90;99.90
56771;DHT22;42641;59.794;17.616;2023-09-18T13:50:01;18.70;99.90
56771;DHT22;42641;59.794;17.616;2023-09-18T13:52:33;18.50;99.90
56771;DHT22;42641;59.794;17.616;2023-09-18T13:55:00;18.40;99.90
56771;DHT22;42641;59.794;17.616;2023-09-18T13:57:27;18.40;99.90
56771;DHT22;42641;59.794;17.616;2023-09-18T13:59:54;18.20;99.90
56771;DHT22;42641;59.794;17.616;2023-09-18T14:02:20;18.10;99.90
56771;DHT22;42641;59.794;17.616;2023-09-18T14:04:47;18.00;99.90
56771;DHT22;42641;59.794;17.616;2023-09-18T14:07:14;17.90;99.90
56771;DHT22;42641;59.794;17.616;2023-09-18T14:09:41;17.80;99.90
56771;DHT22;42641;59.794;17.616;2023-09-18T14:12:07;17.60;99.90
56771;DHT22;42641;59.794;17.616;2023-09-18T14:14:34;17.50;99.90
56771;DHT22;42641;59.794;17.616;2023-09-18T14:17:02;17.40;99.90
56771;DHT22;42641;59.794;17.616;2023-09-18T14:19:30;17.50;99.90
56771;DHT22;42641;59.794;17.616;2023-09-18T14:21:56;17.60;99.90
56771;DHT22;42641;59.794;17.616;2023-09-18T14:24:23;17.60;99.90
56771;DHT22;42641;59.794;17.616;2023-09-18T14:26:52;17.70;99.90
56771;DHT22;42641;59.794;17.616;2023-09-18T14:29:19;17.70;99.90
56771;DHT22;42641;59.794;17.616;2023-09-18T14:31:45;17.60;99.90
56771;DHT22;42641;59.794;17.616;2023-09-18T14:34:12;17.50;99.90
56771;DHT22;42641;59.794;17.616;2023-09-18T14:36:38;17.40;99.90
56771;DHT22;42641;59.794;17.616;2023-09-18T14:39:06;17.30;99.90
56771;DHT22;42641;59.794;17.616;2023-09-18T14:41:36;17.20;99.90
56771;DHT22;42641;59.794;17.616;2023-09-18T14:44:03;17.20;99.90
56771;DHT22;42641;59.794;17.616;2023-09-18T14:46:31;17.10;99.90
56771;DHT22;42641;59.794;17.616;2023-09-18T14:49:00;17.00;99.90
56771;DHT22;42641;59.794;17.616;2023-09-18T14:51:27;17.00;99.90
56771;DHT22;42641;59.794;17.616;2023-09-18T14:54:00;16.90;99.90
56771;DHT22;42641;59.794;17.616;2023-09-18T14:56:27;16.80;99.90
56771;DHT22;42641;59.794;17.616;2023-09-18T14:58:53;16.90;99.90
56771;DHT22;42641;59.794;17.616;2023-09-18T15:01:22;16.90;99.90
56771;DHT22;42641;59.794;17.616;2023-09-18T15:03:48;16.90;99.90
56771;DHT22;42641;59.794;17.616;2023-09-18T15:06:16;16.80;99.90
56771;DHT22;42641;59.794;17.616;2023-09-18T15:08:42;16.80;99.90
56771;DHT22;42641;59.794;17.616;2023-09-18T15:11:10;16.70;99.90
56771;DHT22;42641;59.794;17.616;2023-09-18T15:13:37;16.70;99.90
56771;DHT22;42641;59.794;17.616;2023-09-18T15:16:03;16.60;99.90
56771;DHT22;42641;59.794;17.616;2023-09-18T15:18:30;16.50;99.90
56771;DHT22;42641;59.794;17.616;2023-09-18T15:20:56;16.40;99.90
56771;DHT22;42641;59.794;17.616;2023-09-18T15:23:25;16.30;99.90
56771;DHT22;42641;59.794;17.616;2023-09-18T15:25:53;16.30;99.90
56771;DHT22;42641;59.794;17.616;2023-09-18T15:28:22;16.20;99.90
56771;DHT22;42641;59.794;17.616;2023-09-18T15:30:51;16.20;99.90
56771;DHT22;42641;59.794;17.616;2023-09-18T15:33:19;16.10;99.90
56771;DHT22;42641;59.794;17.616;2023-09-18T15:35:49;16.10;99.90
56771;DHT22;42641;59.794;17.616;2023-09-18T15:38:15;16.10;99.90
56771;DHT22;42641;59.794;17.616;2023-09-18T15:40:42;16.10;99.90
56771;DHT22;42641;59.794;17.616;2023-09-18T15:43:08;16.10;99.90
56771;DHT22;42641;59.794;17.616;2023-09-18T15:45:35;16.00;99.90